sensor_id;sensor_type;location;lat;lon;timestamp;pressure;altitude;pressure_sealevel;temperature;humidity
23176;BME280;19910;42.652;23.332;2023-02-12T00:01:02;95597.84;;;1.45;47.51
23176;BME280;19910;42.652;23.332;2023-02-12T00:03:34;95581.25;;;1.42;47.75
23176;BME280;19910;42.652;23.332;2023-02-12T00:06:01;95592.75;;;1.43;48.00
23176;BME280;19910;42.652;23.332;2023-02-12T00:08:28;95587.09;;;1.39;47.50
23176;BME280;19910;42.652;23.332;2023-02-12T00:10:56;95595.34;;;1.38;48.11
23176;BME280;19910;42.652;23.332;2023-02-12T00:13:22;95595.34;;;1.38;47.78
23176;BME280;19910;42.652;23.332;2023-02-12T00:15:49;95597.75;;;1.39;46.92
23176;BME280;19910;42.652;23.332;2023-02-12T00:18:16;95587.16;;;1.45;46.76
23176;BME280;19910;42.652;23.332;2023-02-12T00:20:43;95596.31;;;1.49;47.39
23176;BME280;19910;42.652;23.332;2023-02-12T00:23:11;95593.88;;;1.47;46.88
23176;BME280;19910;42.652;23.332;2023-02-12T00:25:40;95608.44;;;1.39;46.95
23176;BME280;19910;42.652;23.332;2023-02-12T00:28:08;95593.56;;;1.43;46.62
23176;BME280;19910;42.652;23.332;2023-02-12T00:30:35;95590.97;;;1.49;46.50
23176;BME280;19910;42.652;23.332;2023-02-12T00:33:02;95587.47;;;1.48;46.69
23176;BME280;19910;42.652;23.332;2023-02-12T00:35:29;95594.03;;;1.40;47.11
23176;BME280;19910;42.652;23.332;2023-02-12T00:37:56;95571.72;;;1.47;47.36
23176;BME280;19910;42.652;23.332;2023-02-12T00:40:22;95579.47;;;1.48;47.23
23176;BME280;19910;42.652;23.332;2023-02-12T00:42:49;95558.94;;;1.49;47.20
23176;BME280;19910;42.652;23.332;2023-02-12T00:45:17;95552.69;;;1.43;47.13
23176;BME280;19910;42.652;23.332;2023-02-12T00:47:44;95554.25;;;1.39;47.38
23176;BME280;19910;42.652;23.332;2023-02-12T00:50:11;95565.72;;;1.39;47.77
23176;BME280;19910;42.652;23.332;2023-02-12T00:52:38;95561.44;;;1.38;47.66
23176;BME280;19910;42.652;23.332;2023-02-12T00:55:05;95554.31;;;1.22;47.67
23176;BME280;19910;42.652;23.332;2023-02-12T00:57:32;95562.22;;;1.17;47.71
23176;BME280;19910;42.652;23.332;2023-02-12T00:59:59;95543.75;;;1.32;47.33
23176;BME280;19910;42.652;23.332;2023-02-12T01:02:27;95552.34;;;1.34;47.36
23176;BME280;19910;42.652;23.332;2023-02-12T01:04:54;95535.31;;;1.40;48.11
23176;BME280;19910;42.652;23.332;2023-02-12T01:07:20;95536.06;;;1.36;47.04
23176;BME280;19910;42.652;23.332;2023-02-12T01:09:47;95530.97;;;1.34;47.33
23176;BME280;19910;42.652;23.332;2023-02-12T01:12:14;95540.34;;;1.37;47.50
23176;BME280;19910;42.652;23.332;2023-02-12T01:14:41;95532.22;;;1.49;47.50
23176;BME280;19910;42.652;23.332;2023-02-12T01:17:08;95536.25;;;1.51;47.09
23176;BME280;19910;42.652;23.332;2023-02-12T01:19:36;95546.19;;;1.56;47.19
23176;BME280;19910;42.652;23.332;2023-02-12T01:22:03;95547.88;;;1.62;48.01
23176;BME280;19910;42.652;23.332;2023-02-12T01:24:30;95562.66;;;1.48;47.94
23176;BME280;19910;42.652;23.332;2023-02-12T01:26:56;95557.78;;;1.45;47.23
23176;BME280;19910;42.652;23.332;2023-02-12T01:29:23;95564.19;;;1.43;48.23
23176;BME280;19910;42.652;23.332;2023-02-12T01:31:50;95565.72;;;1.39;48.08
23176;BME280;19910;42.652;23.332;2023-02-12T01:34:16;95568.47;;;1.45;48.25
23176;BME280;19910;42.652;23.332;2023-02-12T01:36:45;95567.34;;;1.40;48.71
23176;BME280;19910;42.652;23.332;2023-02-12T01:39:12;95559.41;;;1.46;47.87
23176;BME280;19910;42.652;23.332;2023-02-12T01:41:40;95547.59;;;1.41;48.75
23176;BME280;19910;42.652;23.332;2023-02-12T01:44:11;95547.00;;;1.34;48.71
23176;BME280;19910;42.652;23.332;2023-02-12T01:46:38;95533.56;;;1.29;48.65
23176;BME280;19910;42.652;23.332;2023-02-12T01:49:07;95549.59;;;1.29;49.08
23176;BME280;19910;42.652;23.332;2023-02-12T01:51:36;95550.56;;;1.23;49.40
23176;BME280;19910;42.652;23.332;2023-02-12T01:54:07;95544.25;;;1.29;49.03
23176;BME280;19910;42.652;23.332;2023-02-12T01:56:36;95531.38;;;1.26;49.00
23176;BME280;19910;42.652;23.332;2023-02-12T01:59:04;95534.63;;;1.28;49.75
23176;BME280;19910;42.652;23.332;2023-02-12T02:01:32;95531.78;;;1.35;49.60
23176;BME280;19910;42.652;23.332;2023-02-12T02:04:01;95530.41;;;1.32;49.17
23176;BME280;19910;42.652;23.332;2023-02-12T02:06:33;95524.44;;;1.25;49.57
23176;BME280;19910;42.652;23.332;2023-02-12T02:09:00;95523.88;;;1.23;50.03
23176;BME280;19910;42.652;23.332;2023-02-12T02:11:29;95529.22;;;1.23;50.57
23176;BME280;19910;42.652;23.332;2023-02-12T02:14:13;95519.22;;;1.14;50.21
23176;BME280;19910;42.652;23.332;2023-02-12T02:17:05;95539.28;;;1.16;50.56
23176;BME280;19910;42.652;23.332;2023-02-12T02:19:52;95544.13;;;1.19;50.27
23176;BME280;19910;42.652;23.332;2023-02-12T02:22:30;95528.72;;;1.26;49.96
23176;BME280;19910;42.652;23.332;2023-02-12T02:28:12;95529.22;;;1.23;50.39
23176;BME280;19910;42.652;23.332;2023-02-12T02:30:51;95532.69;;;1.24;50.93
23176;BME280;19910;42.652;23.332;2023-02-12T02:33:29;95518.41;;;1.13;51.06
23176;BME280;19910;42.652;23.332;2023-02-12T02:36:13;95522.31;;;1.05;51.12
23176;BME280;19910;42.652;23.332;2023-02-12T02:39:05;95516.66;;;1.02;51.74
23176;BME280;19910;42.652;23.332;2023-02-12T02:41:37;95518.91;;;1.10;51.97
23176;BME280;19910;42.652;23.332;2023-02-12T02:44:09;95515.69;;;1.08;52.26
23176;BME280;19910;42.652;23.332;2023-02-12T02:46:46;95517.16;;;0.99;52.51
23176;BME280;19910;42.652;23.332;2023-02-12T02:49:18;95537.66;;;1.15;52.89
23176;BME280;19910;42.652;23.332;2023-02-12T02:51:51;95522.22;;;1.17;52.79
23176;BME280;19910;42.652;23.332;2023-02-12T02:54:25;95524.44;;;1.25;53.02
23176;BME280;19910;42.652;23.332;2023-02-12T02:56:57;95527.75;;;1.32;53.05
23176;BME280;19910;42.652;23.332;2023-02-12T02:59:28;95530.59;;;1.26;53.02
23176;BME280;19910;42.652;23.332;2023-02-12T03:02:01;95530.00;;;1.24;53.49
23176;BME280;19910;42.652;23.332;2023-02-12T03:04:31;95533.09;;;1.32;53.97
23176;BME280;19910;42.652;23.332;2023-02-12T03:07:03;95533.09;;;1.32;53.53
23176;BME280;19910;42.652;23.332;2023-02-12T03:09:36;95529.38;;;1.33;53.78
23176;BME280;19910;42.652;23.332;2023-02-12T03:12:06;95528.22;;;1.29;53.75
23176;BME280;19910;42.652;23.332;2023-02-12T03:14:37;95515.78;;;1.35;53.50
23176;BME280;19910;42.652;23.332;2023-02-12T03:17:09;95517.69;;;1.39;53.56
23176;BME280;19910;42.652;23.332;2023-02-12T03:19:41;95523.53;;;1.36;53.91
23176;BME280;19910;42.652;23.332;2023-02-12T03:22:11;95522.66;;;1.31;54.12
23176;BME280;19910;42.652;23.332;2023-02-12T03:24:43;95516.25;;;1.32;54.55
23176;BME280;19910;42.652;23.332;2023-02-12T03:27:16;95516.59;;;1.35;54.45
23176;BME280;19910;42.652;23.332;2023-02-12T03:29:44;95514.97;;;1.34;53.97
23176;BME280;19910;42.652;23.332;2023-02-12T03:32:22;95526.13;;;1.31;55.21
23176;BME280;19910;42.652;23.332;2023-02-12T03:35:00;95524.31;;;1.15;55.36
23176;BME280;19910;42.652;23.332;2023-02-12T03:37:34;95518.28;;;1.25;55.26
23176;BME280;19910;42.652;23.332;2023-02-12T03:40:08;95523.97;;;0.90;55.73
23176;BME280;19910;42.652;23.332;2023-02-12T03:42:44;95529.28;;;0.90;56.32
23176;BME280;19910;42.652;23.332;2023-02-12T03:45:21;95529.91;;;0.97;56.32
23176;BME280;19910;42.652;23.332;2023-02-12T03:47:59;95503.41;;;1.07;56.45
23176;BME280;19910;42.652;23.332;2023-02-12T03:50:35;95516.69;;;1.24;55.96
23176;BME280;19910;42.652;23.332;2023-02-12T03:53:05;95520.47;;;1.28;55.34
23176;BME280;19910;42.652;23.332;2023-02-12T03:55:33;95506.41;;;1.32;55.15
23176;BME280;19910;42.652;23.332;2023-02-12T03:58:07;95523.47;;;1.31;55.45
23176;BME280;19910;42.652;23.332;2023-02-12T04:00:36;95521.13;;;1.35;55.88
23176;BME280;19910;42.652;23.332;2023-02-12T04:03:06;95527.75;;;1.32;56.39
23176;BME280;19910;42.652;23.332;2023-02-12T04:05:33;95515.88;;;1.23;56.26
23176;BME280;19910;42.652;23.332;2023-02-12T04:08:01;95515.19;;;1.11;56.79
23176;BME280;19910;42.652;23.332;2023-02-12T04:10:33;95510.34;;;1.08;57.01
23176;BME280;19910;42.652;23.332;2023-02-12T04:13:10;95524.75;;;1.07;57.67
23176;BME280;19910;42.652;23.332;2023-02-12T04:15:50;95523.53;;;0.98;57.10
23176;BME280;19910;42.652;23.332;2023-02-12T04:18:26;95532.53;;;0.75;57.52
23176;BME280;19910;42.652;23.332;2023-02-12T04:21:01;95534.16;;;0.59;58.09
23176;BME280;19910;42.652;23.332;2023-02-12T04:23:43;95538.34;;;0.55;59.01
23176;BME280;19910;42.652;23.332;2023-02-12T04:26:20;95546.94;;;0.41;59.20
23176;BME280;19910;42.652;23.332;2023-02-12T04:28:56;95547.47;;;0.26;59.96
23176;BME280;19910;42.652;23.332;2023-02-12T04:31:30;95550.63;;;0.23;60.07
23176;BME280;19910;42.652;23.332;2023-02-12T04:34:06;95547.84;;;0.18;60.35
23176;BME280;19910;42.652;23.332;2023-02-12T04:36:37;95553.09;;;0.13;60.69
23176;BME280;19910;42.652;23.332;2023-02-12T04:39:08;95558.03;;;0.21;60.23
23176;BME280;19910;42.652;23.332;2023-02-12T04:41:38;95547.94;;;0.23;60.17
23176;BME280;19910;42.652;23.332;2023-02-12T04:44:21;95547.22;;;0.27;59.94
23176;BME280;19910;42.652;23.332;2023-02-12T04:46:48;95554.16;;;0.28;60.01
23176;BME280;19910;42.652;23.332;2023-02-12T04:49:19;95554.59;;;0.37;59.69
23176;BME280;19910;42.652;23.332;2023-02-12T04:51:47;95560.50;;;0.39;59.85
23176;BME280;19910;42.652;23.332;2023-02-12T04:54:15;95561.78;;;0.37;59.73
23176;BME280;19910;42.652;23.332;2023-02-12T04:56:42;95552.41;;;0.34;60.07
23176;BME280;19910;42.652;23.332;2023-02-12T04:59:10;95560.50;;;0.39;60.37
23176;BME280;19910;42.652;23.332;2023-02-12T05:01:38;95562.19;;;0.45;59.82
23176;BME280;19910;42.652;23.332;2023-02-12T05:04:06;95564.13;;;0.50;60.38
23176;BME280;19910;42.652;23.332;2023-02-12T05:06:35;95556.47;;;0.53;60.05
23176;BME280;19910;42.652;23.332;2023-02-12T05:09:03;95564.69;;;0.52;60.29
23176;BME280;19910;42.652;23.332;2023-02-12T05:11:30;95565.81;;;0.56;60.61
23176;BME280;19910;42.652;23.332;2023-02-12T05:13:59;95567.84;;;0.65;59.13
23176;BME280;19910;42.652;23.332;2023-02-12T05:16:26;95565.44;;;0.81;58.84
23176;BME280;19910;42.652;23.332;2023-02-12T05:18:53;95570.97;;;0.96;58.38
23176;BME280;19910;42.652;23.332;2023-02-12T05:21:19;95565.81;;;1.06;57.50
23176;BME280;19910;42.652;23.332;2023-02-12T05:23:48;95578.72;;;1.14;57.13
23176;BME280;19910;42.652;23.332;2023-02-12T05:26:19;95580.34;;;1.15;58.60
23176;BME280;19910;42.652;23.332;2023-02-12T05:28:46;95575.00;;;1.15;59.10
23176;BME280;19910;42.652;23.332;2023-02-12T05:31:15;95588.34;;;1.15;59.00
23176;BME280;19910;42.652;23.332;2023-02-12T05:33:43;95587.13;;;1.23;58.78
23176;BME280;19910;42.652;23.332;2023-02-12T05:36:12;95594.88;;;1.24;59.31
23176;BME280;19910;42.652;23.332;2023-02-12T05:38:39;95591.00;;;1.15;60.01
23176;BME280;19910;42.652;23.332;2023-02-12T05:41:09;95591.00;;;1.15;60.24
23176;BME280;19910;42.652;23.332;2023-02-12T05:43:36;95602.34;;;1.22;61.19
23176;BME280;19910;42.652;23.332;2023-02-12T05:46:05;95608.97;;;1.20;61.48
23176;BME280;19910;42.652;23.332;2023-02-12T05:48:33;95608.88;;;0.98;62.09
23176;BME280;19910;42.652;23.332;2023-02-12T05:51:03;95610.03;;;1.02;62.35
23176;BME280;19910;42.652;23.332;2023-02-12T05:53:31;95609.13;;;0.96;63.24
23176;BME280;19910;42.652;23.332;2023-02-12T05:56:11;95608.81;;;0.93;62.80
23176;BME280;19910;42.652;23.332;2023-02-12T05:58:39;95606.31;;;0.86;63.54
23176;BME280;19910;42.652;23.332;2023-02-12T06:01:11;95601.16;;;0.80;64.38
23176;BME280;19910;42.652;23.332;2023-02-12T06:03:39;95621.13;;;0.94;64.52
23176;BME280;19910;42.652;23.332;2023-02-12T06:06:06;95614.31;;;1.03;65.40
23176;BME280;19910;42.652;23.332;2023-02-12T06:08:33;95624.97;;;1.03;65.36
23176;BME280;19910;42.652;23.332;2023-02-12T06:11:05;95621.41;;;0.97;66.13
23176;BME280;19910;42.652;23.332;2023-02-12T06:13:34;95620.06;;;0.95;67.34
23176;BME280;19910;42.652;23.332;2023-02-12T06:16:01;95614.97;;;0.93;67.96
23176;BME280;19910;42.652;23.332;2023-02-12T06:18:28;95629.66;;;0.96;68.71
23176;BME280;19910;42.652;23.332;2023-02-12T06:20:57;95611.19;;;1.45;76.39
23176;BME280;19910;42.652;23.332;2023-02-12T06:23:24;95627.22;;;1.28;69.04
23176;BME280;19910;42.652;23.332;2023-02-12T06:25:55;95629.25;;;1.04;69.70
23176;BME280;19910;42.652;23.332;2023-02-12T06:28:22;95620.78;;;1.07;69.33
23176;BME280;19910;42.652;23.332;2023-02-12T06:30:50;95636.69;;;1.02;70.21
23176;BME280;19910;42.652;23.332;2023-02-12T06:33:17;95637.75;;;1.01;70.80
23176;BME280;19910;42.652;23.332;2023-02-12T06:35:44;95638.06;;;0.88;72.84
23176;BME280;19910;42.652;23.332;2023-02-12T06:38:10;95639.06;;;0.82;73.28
23176;BME280;19910;42.652;23.332;2023-02-12T06:40:37;95638.72;;;0.78;74.30
23176;BME280;19910;42.652;23.332;2023-02-12T06:43:04;95649.72;;;0.82;74.64
23176;BME280;19910;42.652;23.332;2023-02-12T06:45:32;95649.53;;;0.71;75.08
23176;BME280;19910;42.652;23.332;2023-02-12T06:48:00;95636.75;;;0.74;74.99
23176;BME280;19910;42.652;23.332;2023-02-12T06:50:27;95629.75;;;0.67;75.05
23176;BME280;19910;42.652;23.332;2023-02-12T06:52:54;95630.97;;;0.77;75.16
23176;BME280;19910;42.652;23.332;2023-02-12T06:55:20;95629.34;;;0.76;74.92
23176;BME280;19910;42.652;23.332;2023-02-12T06:57:47;95629.69;;;0.79;75.23
23176;BME280;19910;42.652;23.332;2023-02-12T07:00:14;95627.25;;;0.78;75.17
23176;BME280;19910;42.652;23.332;2023-02-12T07:02:41;95631.53;;;0.79;74.68
23176;BME280;19910;42.652;23.332;2023-02-12T07:05:09;95638.84;;;0.71;74.96
23176;BME280;19910;42.652;23.332;2023-02-12T07:07:36;95630.16;;;0.76;74.61
23176;BME280;19910;42.652;23.332;2023-02-12T07:10:04;95637.34;;;0.76;74.68
23176;BME280;19910;42.652;23.332;2023-02-12T07:12:32;95637.44;;;0.81;74.44
23176;BME280;19910;42.652;23.332;2023-02-12T07:14:59;95638.06;;;0.88;74.46
23176;BME280;19910;42.652;23.332;2023-02-12T07:17:27;95644.00;;;1.06;74.30
23176;BME280;19910;42.652;23.332;2023-02-12T07:19:54;95643.56;;;0.98;74.05
23176;BME280;19910;42.652;23.332;2023-02-12T07:22:22;95648.66;;;0.99;74.19
23176;BME280;19910;42.652;23.332;2023-02-12T07:24:49;95645.03;;;0.89;74.26
23176;BME280;19910;42.652;23.332;2023-02-12T07:27:16;95647.13;;;0.87;75.02
23176;BME280;19910;42.652;23.332;2023-02-12T07:29:43;95644.13;;;0.83;74.55
23176;BME280;19910;42.652;23.332;2023-02-12T07:32:10;95645.91;;;0.78;74.79
23176;BME280;19910;42.652;23.332;2023-02-12T07:34:37;95638.72;;;0.78;74.99
23176;BME280;19910;42.652;23.332;2023-02-12T07:37:03;95647.91;;;0.70;75.16
23176;BME280;19910;42.652;23.332;2023-02-12T07:39:32;95651.06;;;0.67;75.61
23176;BME280;19910;42.652;23.332;2023-02-12T07:41:59;95650.88;;;0.57;75.97
23176;BME280;19910;42.652;23.332;2023-02-12T07:44:26;95660.31;;;0.48;76.26
23176;BME280;19910;42.652;23.332;2023-02-12T07:46:52;95663.22;;;0.47;76.63
23176;BME280;19910;42.652;23.332;2023-02-12T07:49:20;95667.31;;;0.38;77.15
23176;BME280;19910;42.652;23.332;2023-02-12T07:51:48;95662.88;;;0.43;77.27
23176;BME280;19910;42.652;23.332;2023-02-12T07:54:15;95670.03;;;0.26;78.44
23176;BME280;19910;42.652;23.332;2023-02-12T07:56:44;95678.50;;;0.23;78.66
23176;BME280;19910;42.652;23.332;2023-02-12T07:59:13;95661.06;;;0.32;80.08
23176;BME280;19910;42.652;23.332;2023-02-12T08:01:41;95665.19;;;0.51;79.59
23176;BME280;19910;42.652;23.332;2023-02-12T08:04:12;95660.03;;;1.45;81.62
23176;BME280;19910;42.652;23.332;2023-02-12T08:06:42;95662.44;;;0.63;78.37
23176;BME280;19910;42.652;23.332;2023-02-12T08:09:12;95670.78;;;0.38;79.13
23176;BME280;19910;42.652;23.332;2023-02-12T08:11:40;95673.34;;;0.33;79.74
23176;BME280;19910;42.652;23.332;2023-02-12T08:14:14;95679.72;;;0.32;80.14
23176;BME280;19910;42.652;23.332;2023-02-12T08:16:41;95674.88;;;0.29;80.51
23176;BME280;19910;42.652;23.332;2023-02-12T08:19:09;95679.38;;;0.40;79.93
23176;BME280;19910;42.652;23.332;2023-02-12T08:21:36;95676.66;;;0.52;79.84
23176;BME280;19910;42.652;23.332;2023-02-12T08:24:03;95685.41;;;0.64;79.53
23176;BME280;19910;42.652;23.332;2023-02-12T08:26:32;95673.47;;;0.55;78.99
23176;BME280;19910;42.652;23.332;2023-02-12T08:29:01;95685.91;;;0.78;78.99
23176;BME280;19910;42.652;23.332;2023-02-12T08:31:31;95694.56;;;0.56;78.71
23176;BME280;19910;42.652;23.332;2023-02-12T08:33:59;95690.78;;;0.52;79.34
23176;BME280;19910;42.652;23.332;2023-02-12T08:36:28;95700.25;;;0.60;79.42
23176;BME280;19910;42.652;23.332;2023-02-12T08:38:56;95694.78;;;0.66;78.98
23176;BME280;19910;42.652;23.332;2023-02-12T08:41:25;95694.44;;;0.63;79.26
23176;BME280;19910;42.652;23.332;2023-02-12T08:43:53;95698.16;;;0.62;79.53
23176;BME280;19910;42.652;23.332;2023-02-12T08:46:23;95703.91;;;0.70;79.36
23176;BME280;19910;42.652;23.332;2023-02-12T08:48:53;95709.16;;;0.82;79.08
23176;BME280;19910;42.652;23.332;2023-02-12T08:51:22;95707.50;;;0.93;78.97
23176;BME280;19910;42.652;23.332;2023-02-12T08:53:52;95706.19;;;0.79;78.95
23176;BME280;19910;42.652;23.332;2023-02-12T08:56:19;95708.09;;;0.95;78.58
23176;BME280;19910;42.652;23.332;2023-02-12T08:58:46;95714.78;;;0.97;78.63
23176;BME280;19910;42.652;23.332;2023-02-12T09:01:14;95716.00;;;0.90;78.34
23176;BME280;19910;42.652;23.332;2023-02-12T09:03:42;95712.28;;;0.91;78.77
23176;BME280;19910;42.652;23.332;2023-02-12T09:06:10;95714.47;;;1.11;77.92
23176;BME280;19910;42.652;23.332;2023-02-12T09:08:40;95717.00;;;1.17;77.69
23176;BME280;19910;42.652;23.332;2023-02-12T09:11:08;95733.47;;;1.14;78.09
23176;BME280;19910;42.652;23.332;2023-02-12T09:13:37;95719.16;;;1.03;78.17
23176;BME280;19910;42.652;23.332;2023-02-12T09:16:07;95727.69;;;1.34;77.94
23176;BME280;19910;42.652;23.332;2023-02-12T09:18:35;95724.13;;;1.45;77.74
23176;BME280;19910;42.652;23.332;2023-02-12T09:21:03;95727.91;;;1.32;78.09
23176;BME280;19910;42.652;23.332;2023-02-12T09:23:32;95730.91;;;1.53;77.78
23176;BME280;19910;42.652;23.332;2023-02-12T09:26:02;95734.13;;;1.55;77.03
23176;BME280;19910;42.652;23.332;2023-02-12T09:28:29;95730.19;;;1.40;77.44
23176;BME280;19910;42.652;23.332;2023-02-12T09:30:56;95738.19;;;1.40;77.32
23176;BME280;19910;42.652;23.332;2023-02-12T09:33:25;95727.66;;;1.51;76.58
23176;BME280;19910;42.652;23.332;2023-02-12T09:35:52;95734.84;;;1.67;76.86
23176;BME280;19910;42.652;23.332;2023-02-12T09:38:19;95745.16;;;1.58;77.11
23176;BME280;19910;42.652;23.332;2023-02-12T09:41:03;95743.19;;;1.54;76.98
23176;BME280;19910;42.652;23.332;2023-02-12T09:43:39;95746.44;;;1.56;77.03
23176;BME280;19910;42.652;23.332;2023-02-12T09:46:13;95726.94;;;1.38;77.30
23176;BME280;19910;42.652;23.332;2023-02-12T09:48:50;95736.06;;;1.76;77.04
23176;BME280;19910;42.652;23.332;2023-02-12T09:51:20;95749.72;;;1.79;76.41
23176;BME280;19910;42.652;23.332;2023-02-12T09:53:59;95743.84;;;1.61;76.87
23176;BME280;19910;42.652;23.332;2023-02-12T09:56:30;95747.91;;;1.63;76.54
23176;BME280;19910;42.652;23.332;2023-02-12T09:58:59;95747.72;;;1.70;76.64
23176;BME280;19910;42.652;23.332;2023-02-12T10:01:27;95738.88;;;1.86;76.47
23176;BME280;19910;42.652;23.332;2023-02-12T10:03:54;95740.06;;;1.95;76.09
23176;BME280;19910;42.652;23.332;2023-02-12T10:06:24;95739.16;;;2.06;75.87
23176;BME280;19910;42.652;23.332;2023-02-12T10:09:11;95745.56;;;2.05;75.28
23176;BME280;19910;42.652;23.332;2023-02-12T10:11:55;95752.50;;;2.06;75.46
23176;BME280;19910;42.652;23.332;2023-02-12T10:14:42;95737.00;;;2.03;75.55
23176;BME280;19910;42.652;23.332;2023-02-12T10:17:18;95747.94;;;2.24;75.28
23176;BME280;19910;42.652;23.332;2023-02-12T10:20:08;95753.84;;;2.47;74.01
23176;BME280;19910;42.652;23.332;2023-02-12T10:22:48;95739.38;;;2.43;74.41
23176;BME280;19910;42.652;23.332;2023-02-12T10:25:24;95737.84;;;2.74;73.70
23176;BME280;19910;42.652;23.332;2023-02-12T10:27:55;95744.34;;;2.78;72.79
23176;BME280;19910;42.652;23.332;2023-02-12T10:30:25;95742.53;;;2.62;73.42
23176;BME280;19910;42.652;23.332;2023-02-12T10:32:58;95752.81;;;2.70;73.56
23176;BME280;19910;42.652;23.332;2023-02-12T10:35:26;95759.72;;;2.44;74.41
23176;BME280;19910;42.652;23.332;2023-02-12T10:37:57;95747.97;;;2.67;73.18
23176;BME280;19910;42.652;23.332;2023-02-12T10:40:28;95744.16;;;2.85;73.50
23176;BME280;19910;42.652;23.332;2023-02-12T10:42:59;95740.59;;;3.06;72.39
23176;BME280;19910;42.652;23.332;2023-02-12T10:45:31;95753.44;;;3.31;72.45
23176;BME280;19910;42.652;23.332;2023-02-12T10:48:05;95747.06;;;2.83;72.45
23176;BME280;19910;42.652;23.332;2023-02-12T10:50:40;95745.78;;;3.13;73.27
23176;BME280;19910;42.652;23.332;2023-02-12T10:53:16;95745.38;;;3.31;71.70
23176;BME280;19910;42.652;23.332;2023-02-12T10:55:43;95748.56;;;3.28;71.31
23176;BME280;19910;42.652;23.332;2023-02-12T10:58:20;95753.66;;;2.98;72.79
23176;BME280;19910;42.652;23.332;2023-02-12T11:00:56;95751.22;;;3.23;72.77
23176;BME280;19910;42.652;23.332;2023-02-12T11:03:27;95757.78;;;3.37;71.73
23176;BME280;19910;42.652;23.332;2023-02-12T11:05:55;95752.75;;;3.14;72.32
23176;BME280;19910;42.652;23.332;2023-02-12T11:08:29;95757.22;;;3.35;71.40
23176;BME280;19910;42.652;23.332;2023-02-12T11:11:03;95757.84;;;3.47;71.95
23176;BME280;19910;42.652;23.332;2023-02-12T11:13:32;95757.78;;;3.37;71.84
23176;BME280;19910;42.652;23.332;2023-02-12T11:15:59;95757.00;;;3.74;76.64
23176;BME280;19910;42.652;23.332;2023-02-12T11:18:28;95743.41;;;4.27;72.70
23176;BME280;19910;42.652;23.332;2023-02-12T11:21:00;95741.41;;;4.60;75.97
23176;BME280;19910;42.652;23.332;2023-02-12T11:23:32;95746.03;;;4.17;70.26
23176;BME280;19910;42.652;23.332;2023-02-12T11:26:01;95737.91;;;4.02;70.24
23176;BME280;19910;42.652;23.332;2023-02-12T11:28:33;95752.56;;;3.89;70.91
23176;BME280;19910;42.652;23.332;2023-02-12T11:31:02;95746.50;;;4.04;70.02
23176;BME280;19910;42.652;23.332;2023-02-12T11:33:31;95736.88;;;4.08;69.90
23176;BME280;19910;42.652;23.332;2023-02-12T11:36:01;95729.59;;;4.51;68.65
23176;BME280;19910;42.652;23.332;2023-02-12T11:38:33;95728.16;;;4.33;68.56
23176;BME280;19910;42.652;23.332;2023-02-12T11:41:06;95722.53;;;4.35;69.21
23176;BME280;19910;42.652;23.332;2023-02-12T11:43:35;95734.06;;;4.40;68.57
23176;BME280;19910;42.652;23.332;2023-02-12T11:46:04;95734.19;;;4.08;68.61
23176;BME280;19910;42.652;23.332;2023-02-12T11:48:35;95726.16;;;4.08;69.54
23176;BME280;19910;42.652;23.332;2023-02-12T11:51:06;95729.63;;;4.61;68.54
23176;BME280;19910;42.652;23.332;2023-02-12T11:53:36;95731.16;;;4.47;68.53
23176;BME280;19910;42.652;23.332;2023-02-12T11:56:07;95733.25;;;4.40;67.75
23176;BME280;19910;42.652;23.332;2023-02-12T11:58:37;95743.84;;;4.09;70.25
23176;BME280;19910;42.652;23.332;2023-02-12T12:01:09;95731.94;;;4.37;68.64
23176;BME280;19910;42.652;23.332;2023-02-12T12:03:45;95736.16;;;4.23;68.78
23176;BME280;19910;42.652;23.332;2023-02-12T12:06:24;95745.91;;;3.97;69.73
23176;BME280;19910;42.652;23.332;2023-02-12T12:08:57;95734.28;;;4.23;68.11
23176;BME280;19910;42.652;23.332;2023-02-12T12:11:33;95732.72;;;4.33;68.19
23176;BME280;19910;42.652;23.332;2023-02-12T12:14:08;95739.19;;;4.42;68.00
23176;BME280;19910;42.652;23.332;2023-02-12T12:16:42;95737.63;;;4.56;67.51
23176;BME280;19910;42.652;23.332;2023-02-12T12:19:36;95736.41;;;4.21;68.03
23176;BME280;19910;42.652;23.332;2023-02-12T12:22:29;95744.94;;;4.13;68.78
23176;BME280;19910;42.652;23.332;2023-02-12T12:25:03;95735.88;;;4.24;69.10
23176;BME280;19910;42.652;23.332;2023-02-12T12:27:35;95741.38;;;4.55;68.19
23176;BME280;19910;42.652;23.332;2023-02-12T12:30:40;95741.53;;;4.23;67.67
23176;BME280;19910;42.652;23.332;2023-02-12T12:33:15;95747.56;;;4.03;69.07
23176;BME280;19910;42.652;23.332;2023-02-12T12:35:49;95750.97;;;4.36;68.41
23176;BME280;19910;42.652;23.332;2023-02-12T12:38:26;95761.53;;;4.10;68.92
23176;BME280;19910;42.652;23.332;2023-02-12T12:41:02;95761.09;;;4.23;67.70
23176;BME280;19910;42.652;23.332;2023-02-12T12:43:45;95759.28;;;3.92;69.47
23176;BME280;19910;42.652;23.332;2023-02-12T12:46:33;95761.41;;;3.90;69.80
23176;BME280;19910;42.652;23.332;2023-02-12T12:49:19;95749.72;;;4.06;68.37
23176;BME280;19910;42.652;23.332;2023-02-12T12:52:02;95766.63;;;4.07;68.14
23176;BME280;19910;42.652;23.332;2023-02-12T12:54:45;95769.50;;;4.00;68.32
23176;BME280;19910;42.652;23.332;2023-02-12T12:57:22;95772.03;;;4.17;69.57
23176;BME280;19910;42.652;23.332;2023-02-12T13:00:37;95766.00;;;4.37;67.68
23176;BME280;19910;42.652;23.332;2023-02-12T13:06:16;95767.16;;;4.51;67.42
23176;BME280;19910;42.652;23.332;2023-02-12T13:09:09;95773.53;;;4.45;66.93
23176;BME280;19910;42.652;23.332;2023-02-12T13:11:49;95771.81;;;4.23;68.25
23176;BME280;19910;42.652;23.332;2023-02-12T13:14:30;95785.28;;;4.34;67.93
23176;BME280;19910;42.652;23.332;2023-02-12T13:17:07;95777.19;;;4.23;67.92
23176;BME280;19910;42.652;23.332;2023-02-12T13:19:44;95782.59;;;4.34;68.13
23176;BME280;19910;42.652;23.332;2023-02-12T13:22:19;95780.47;;;4.36;67.91
23176;BME280;19910;42.652;23.332;2023-02-12T13:24:54;95788.09;;;4.12;69.05
23176;BME280;19910;42.652;23.332;2023-02-12T13:27:25;95786.09;;;3.92;68.72